Time;durP1;ratioP1;P1;durP2;ratioP2;P2;SDS_P1;SDS_P2;PMS_P1;PMS_P2;Temp;Humidity;BMP_temperature;BMP_pressure;BME280_temperature;BME280_humidity;BME280_pressure;Samples;Min_cycle;Max_cycle;Signal;HPM_P1;HPM_P2
2023/04/15 00:01:20;;;;;;;7.00;3.92;;;;;;;;;;4892579;29;20052;-69
2023/04/15 00:03:46;;;;;;;9.30;4.20;;;;;;;;;;4884393;29;20048;-69
2023/04/15 00:06:13;;;;;;;11.93;4.60;;;;;;;;;;4900892;29;20363;-69
2023/04/15 00:08:39;;;;;;;9.70;4.25;;;;;;;;;;4885035;29;20052;-69
2023/04/15 00:11:05;;;;;;;10.50;4.30;;;;;;;;;;4917571;29;20051;-69
2023/04/15 00:13:32;;;;;;;7.78;4.13;;;;;;;;;;4884734;29;20493;-69
2023/04/15 00:15:59;;;;;;;12.20;4.43;;;;;;;;;;4900411;29;20052;-69
2023/04/15 00:18:25;;;;;;;11.10;4.60;;;;;;;;;;4900714;29;20040;-69
2023/04/15 00:20:52;;;;;;;12.93;4.57;;;;;;;;;;4874935;29;20417;-69
2023/04/15 00:23:18;;;;;;;8.65;4.40;;;;;;;;;;4881879;29;20060;-69
2023/04/15 00:25:44;;;;;;;10.40;4.47;;;;;;;;;;4881893;29;20450;-69
2023/04/15 00:28:10;;;;;;;7.05;4.40;;;;;;;;;;4881761;29;20131;-69
2023/04/15 00:30:36;;;;;;;10.63;4.72;;;;;;;;;;4881471;29;20489;-69
2023/04/15 00:33:02;;;;;;;9.35;4.28;;;;;;;;;;4895894;29;20052;-69
2023/04/15 00:35:31;;;;;;;11.15;4.97;;;;;;;;;;4876202;29;20123;-69
2023/04/15 00:37:57;;;;;;;7.63;4.30;;;;;;;;;;4915293;29;20055;-69
2023/04/15 00:40:25;;;;;;;10.07;4.70;;;;;;;;;;4899823;29;20052;-69
2023/04/15 00:42:51;;;;;;;11.60;4.50;;;;;;;;;;4893567;29;20048;-69
2023/04/15 00:45:17;;;;;;;10.30;4.53;;;;;;;;;;4916951;29;20067;-69
2023/04/15 00:47:44;;;;;;;9.10;4.72;;;;;;;;;;4875837;29;20108;-69
2023/04/15 00:50:11;;;;;;;10.27;4.80;;;;;;;;;;4885050;29;20514;-69
2023/04/15 00:52:38;;;;;;;10.18;4.70;;;;;;;;;;4866965;29;20052;-69
2023/04/15 00:55:04;;;;;;;8.18;4.68;;;8.60;99.90;;;;;;4881356;29;20090;-69
2023/04/15 00:57:31;;;;;;;10.00;5.07;;;;;;;;;;4883414;29;20090;-69
2023/04/15 00:59:57;;;;;;;9.27;4.80;;;;;;;;;;4899883;29;20064;-69
2023/04/15 01:02:24;;;;;;;15.45;5.57;;;;;;;;;;4916687;29;20515;-69
2023/04/15 01:04:51;;;;;;;9.73;5.22;;;;;;;;;;4916777;29;20048;-69
2023/04/15 01:07:17;;;;;;;9.82;5.57;;;;;;;;;;4899448;29;20052;-69
2023/04/15 01:09:44;;;;;;;13.90;5.90;;;;;;;;;;4900229;29;20123;-69
2023/04/15 01:12:12;;;;;;;9.45;5.40;;;;;;;;;;4883957;29;20054;-69
2023/04/15 01:14:39;;;;;;;15.88;5.95;;;;;;;;;;4888418;29;20045;-69
2023/04/15 01:17:06;;;;;;;16.65;6.43;;;;;;;;;;4880853;29;20051;-69
2023/04/15 01:19:32;;;;;;;11.48;5.22;;;;;;;;;;4880349;29;20052;-69
2023/04/15 01:21:58;;;;;;;12.98;5.60;;;;;;;;;;4882211;29;20342;-69
2023/04/15 01:24:26;;;;;;;12.05;5.63;;;;;;;;;;4889722;29;20406;-69
2023/04/15 01:26:52;;;;;;;14.52;6.00;;;;;;;;;;4896720;29;20143;-70
2023/04/15 01:29:18;;;;;;;11.82;6.43;;;;;;;;;;4887176;29;20412;-70
2023/04/15 01:31:54;;;;;;;13.20;6.47;;;7.20;99.90;;;;;;4897196;29;20059;-69
2023/04/15 01:34:21;;;;;;;9.73;6.38;;;;;;;;;;4899656;29;20052;-69
2023/04/15 01:36:47;;;;;;;11.98;6.10;;;;;;;;;;4899960;29;20047;-70
2023/04/15 01:39:13;;;;;;;9.40;5.85;;;;;;;;;;4899296;29;20095;-70
2023/04/15 01:41:41;;;;;;;10.98;6.38;;;;;;;;;;4889157;29;20040;-69
2023/04/15 01:44:07;;;;;;;14.38;6.60;;;;;;;;;;4897680;29;20040;-70
2023/04/15 01:46:33;;;;;;;10.18;6.18;;;;;;;;;;4898231;29;20033;-70
2023/04/15 01:49:00;;;;;;;11.88;6.68;;;;;;;;;;4880943;29;20056;-70
2023/04/15 01:51:26;;;;;;;16.23;6.70;;;;;;;;;;4881162;29;20044;-70
2023/04/15 01:53:55;;;;;;;10.43;6.60;;;;;;;;;;4897602;29;20135;-69
2023/04/15 01:56:23;;;;;;;13.25;6.15;;;;;;;;;;4887978;29;20050;-69
2023/04/15 01:58:49;;;;;;;14.00;7.03;;;;;;;;;;4899348;29;20071;-69
2023/04/15 02:01:15;;;;;;;14.80;7.03;;;6.80;99.90;;;;;;4916217;29;20044;-69
2023/04/15 02:03:42;;;;;;;11.38;6.40;;;;;;;;;;4898026;29;20052;-69
2023/04/15 02:06:08;;;;;;;12.68;6.97;;;;;;;;;;4851634;29;20048;-69
2023/04/15 02:08:34;;;;;;;16.40;7.03;;;;;;;;;;4880848;29;20059;-69
2023/04/15 02:11:00;;;;;;;11.32;7.00;;;;;;;;;;4880206;29;20083;-69
2023/04/15 02:13:26;;;;;;;12.40;7.70;;;;;;;;;;4899348;29;20104;-69
2023/04/15 02:15:54;;;;;;;11.50;7.45;;;;;;;;;;4900108;29;20052;-69
2023/04/15 02:18:20;;;;;;;11.95;6.93;;;;;;;;;;4903209;29;20072;-69
2023/04/15 02:20:47;;;;;;;14.75;7.60;;;;;;;;;;4899597;29;20444;-69
2023/04/15 02:23:13;;;;;;;11.75;7.57;;;;;;;;;;4880338;29;20059;-69
2023/04/15 02:25:40;;;;;;;12.23;7.75;;;;;;;;;;4887556;29;20096;-68
2023/04/15 02:28:06;;;;;;;13.30;7.70;;;;;;;;;;4868832;29;20515;-69
2023/04/15 02:30:33;;;;;;;13.45;7.78;;;;;;;;;;4884428;29;20438;-69
2023/04/15 02:33:00;;;;;;;13.82;7.75;;;7.00;99.90;;;;;;4895695;29;20053;-69
2023/04/15 02:35:26;;;;;;;17.90;7.85;;;7.70;99.90;;;;;;4890331;29;20033;-69
2023/04/15 02:37:52;;;;;;;13.07;8.35;;;;;;;;;;4878228;29;20032;-69
2023/04/15 02:40:18;;;;;;;13.43;8.10;;;;;;;;;;4860957;29;20082;-69
2023/04/15 02:42:45;;;;;;;14.52;8.52;;;;;;;;;;4893291;29;20044;-69
2023/04/15 02:45:11;;;;;;;13.98;8.18;;;6.90;99.90;;;;;;4880147;29;20067;-69
2023/04/15 02:47:40;;;;;;;12.43;7.75;;;;;;;;;;4908646;29;20392;-69
2023/04/15 02:50:11;;;;;;;11.57;8.00;;;;;;;;;;4891857;29;20083;-69
2023/04/15 02:52:41;;;;;;;17.17;8.40;;;6.90;99.90;;;;;;4877461;29;20507;-69
2023/04/15 02:55:08;;;;;;;11.90;8.15;;;6.00;99.90;;;;;;4892270;29;20040;-69
2023/04/15 02:57:36;;;;;;;14.05;8.15;;;;;;;;;;4891530;29;20098;-69
2023/04/15 03:00:03;;;;;;;12.98;8.18;;;6.80;99.90;;;;;;4892959;29;20120;-69
2023/04/15 03:02:38;;;;;;;11.57;8.20;;;6.60;99.90;;;;;;4893293;29;20040;-69
2023/04/15 03:05:05;;;;;;;14.75;8.30;;;;;;;;;;4890068;29;20083;-69
2023/04/15 03:07:31;;;;;;;12.15;8.63;;;;;;;;;;4876181;29;20052;-69
2023/04/15 03:09:58;;;;;;;14.40;8.90;;;;;;;;;;4892997;29;20052;-69
2023/04/15 03:12:24;;;;;;;15.00;8.30;;;;;;;;;;4877375;29;20051;-70
2023/04/15 03:14:50;;;;;;;13.70;8.90;;;;;;;;;;4871293;29;20045;-69
2023/04/15 03:17:16;;;;;;;22.23;9.40;;;;;;;;;;4892353;29;20115;-70
2023/04/15 03:19:43;;;;;;;13.93;8.20;;;;;;;;;;4852317;29;20036;-69
2023/04/15 03:22:09;;;;;;;14.48;9.50;;;;;;;;;;4882786;29;20048;-69
2023/04/15 03:24:35;;;;;;;15.63;8.88;;;;;;;;;;4899938;29;20054;-69
2023/04/15 03:27:01;;;;;;;15.40;9.00;;;;;;;;;;4901257;29;20107;-70
2023/04/15 03:29:27;;;;;;;14.52;9.20;;;;;;;;;;4904768;29;20492;-70
2023/04/15 03:31:53;;;;;;;12.30;8.70;;;;;;;;;;4884801;29;20107;-70
2023/04/15 03:34:19;;;;;;;13.07;9.38;;;;;;;;;;4885799;29;20040;-70
2023/04/15 03:36:46;;;;;;;13.38;9.20;;;;;;;;;;4901477;29;20122;-70
2023/04/15 03:39:12;;;;;;;11.52;8.77;;;;;;;;;;4901278;29;20047;-70
2023/04/15 03:41:38;;;;;;;14.15;9.57;;;;;;;;;;4900557;29;20076;-70
2023/04/15 03:44:04;;;;;;;16.25;9.55;;;;;;;;;;4901514;29;20044;-70
2023/04/15 03:46:30;;;;;;;14.82;10.38;;;;;;;;;;4899793;29;20043;-70
2023/04/15 03:48:57;;;;;;;12.23;9.43;;;;;;;;;;4901078;29;20040;-70
2023/04/15 03:51:23;;;;;;;14.15;10.23;;;;;;;;;;4891191;29;20044;-70
2023/04/15 03:53:49;;;;;;;16.05;10.45;;;;;;;;;;4901053;29;20037;-70
2023/04/15 03:56:15;;;;;;;15.85;10.10;;;;;;;;;;4901184;29;20060;-70
2023/04/15 03:58:41;;;;;;;13.90;9.98;;;;;;;;;;4900269;29;20056;-70
2023/04/15 04:01:07;;;;;;;16.30;9.77;;;;;;;;;;4900436;29;20048;-70
2023/04/15 04:03:33;;;;;;;13.10;9.20;;;;;;;;;;4900732;29;20079;-70
2023/04/15 04:05:59;;;;;;;14.48;9.90;;;;;;;;;;4917696;29;20059;-69
2023/04/15 04:08:26;;;;;;;16.23;10.60;;;;;;;;;;4885364;29;20040;-69
2023/04/15 04:10:52;;;;;;;16.77;10.90;;;;;;;;;;4914351;29;20041;-70
2023/04/15 04:13:18;;;;;;;16.90;10.05;;;;;;;;;;4866631;29;20049;-70
2023/04/15 04:15:45;;;;;;;15.55;9.88;;;;;;;;;;4898955;29;20040;-70
2023/04/15 04:18:11;;;;;;;15.55;9.95;;;;;;;;;;4898733;29;20127;-70
2023/04/15 04:20:37;;;;;;;16.73;10.32;;;;;;;;;;4882264;29;20087;-70
2023/04/15 04:23:03;;;;;;;20.23;10.63;;;;;;;;;;4881832;29;20104;-70
2023/04/15 04:25:29;;;;;;;15.18;10.05;;;;;;;;;;4882202;29;20048;-70
2023/04/15 04:27:55;;;;;;;17.27;10.13;;;;;;;;;;4881911;29;20054;-70
2023/04/15 04:30:22;;;;;;;17.40;10.70;;;;;;;;;;4900775;29;20058;-70
2023/04/15 04:32:49;;;;;;;15.13;9.80;;;;;;;;;;4882645;29;20045;-70
2023/04/15 04:35:15;;;;;;;17.15;10.05;;;;;;;;;;4881831;29;20062;-70
2023/04/15 04:37:41;;;;;;;16.13;10.07;;;;;;;;;;4881508;29;20041;-70
2023/04/15 04:40:08;;;;;;;17.30;10.00;;;6.90;99.90;;;;;;4881159;29;20041;-70
2023/04/15 04:42:34;;;;;;;15.27;10.15;;;;;;;;;;4866270;29;20188;-70
2023/04/15 04:45:00;;;;;;;16.33;10.68;;;;;;;;;;4894813;29;20572;-70
2023/04/15 04:47:26;;;;;;;14.10;9.95;;;;;;;;;;4900301;29;20051;-70
2023/04/15 04:49:52;;;;;;;14.85;10.55;;;;;;;;;;4900283;29;20048;-70
2023/04/15 04:52:18;;;;;;;14.93;10.38;;;;;;;;;;4903020;29;20511;-70
2023/04/15 04:54:44;;;;;;;15.70;10.85;;;;;;;;;;4882714;29;20366;-70
2023/04/15 04:57:12;;;;;;;18.15;11.25;;;;;;;;;;4865860;29;20044;-70
2023/04/15 04:59:38;;;;;;;16.88;10.73;;;;;;;;;;4898070;29;20064;-70
2023/04/15 05:02:05;;;;;;;15.02;10.88;;;;;;;;;;4881310;29;20493;-70
2023/04/15 05:04:31;;;;;;;16.10;11.00;;;;;;;;;;4881563;29;20052;-70
2023/04/15 05:06:58;;;;;;;16.50;11.30;;;;;;;;;;4865815;29;20052;-70
2023/04/15 05:09:24;;;;;;;15.52;10.55;;;;;;;;;;4881489;29;20075;-70
2023/04/15 05:11:50;;;;;;;16.08;11.00;;;;;;;;;;4881185;29;20485;-70
2023/04/15 05:14:16;;;;;;;17.17;11.00;;;;;;;;;;4872127;29;20048;-70
2023/04/15 05:16:42;;;;;;;18.05;11.23;;;;;;;;;;4916886;29;20059;-70
2023/04/15 05:19:08;;;;;;;17.67;11.02;;;;;;;;;;4884363;29;20103;-70
2023/04/15 05:21:35;;;;;;;16.83;11.25;;;;;;;;;;4882160;29;20052;-70
2023/04/15 05:24:01;;;;;;;19.17;11.75;;;;;;;;;;4895046;29;20107;-70
2023/04/15 05:26:27;;;;;;;15.38;10.48;;;;;;;;;;4894823;29;20040;-70
2023/04/15 05:28:53;;;;;;;17.23;11.35;;;;;;;;;;4886172;29;20485;-70
2023/04/15 05:31:20;;;;;;;17.15;11.48;;;;;;;;;;4899697;29;20543;-70
2023/04/15 05:33:46;;;;;;;22.95;12.23;;;;;;;;;;4899621;29;20083;-70
2023/04/15 05:36:12;;;;;;;15.50;11.02;;;;;;;;;;4884155;29;20524;-70
2023/04/15 05:38:38;;;;;;;17.42;11.20;;;;;;;;;;4883721;29;20053;-70
2023/04/15 05:41:04;;;;;;;16.65;10.93;;;;;;;;;;4881051;29;20473;-70
2023/04/15 05:43:30;;;;;;;16.35;10.40;;;;;;;;;;4865320;29;20044;-70
2023/04/15 05:45:57;;;;;;;17.02;10.60;;;;;;;;;;4881066;29;20044;-70
2023/04/15 05:48:23;;;;;;;17.10;11.05;;;;;;;;;;4880970;29;20048;-70
2023/04/15 05:50:49;;;;;;;16.10;10.65;;;;;;;;;;4881932;29;20509;-70
2023/04/15 05:53:15;;;;;;;18.15;10.15;;;;;;;;;;4895650;29;20139;-70
2023/04/15 05:55:41;;;;;;;16.80;10.77;;;;;;;;;;4920326;29;20127;-70
2023/04/15 05:58:07;;;;;;;15.50;9.93;;;;;;;;;;4876813;29;20044;-70
2023/04/15 06:00:33;;;;;;;16.45;9.68;;;;;;;;;;4868986;29;20107;-70
2023/04/15 06:02:59;;;;;;;13.05;9.90;;;;;;;;;;4884547;29;20056;-70
2023/04/15 06:05:26;;;;;;;15.93;9.40;;;;;;;;;;4884239;29;20053;-70
2023/04/15 06:07:52;;;;;;;14.45;9.50;;;;;;;;;;4907750;29;20054;-70
2023/04/15 06:10:18;;;;;;;13.65;9.35;;;;;;;;;;4887267;29;20046;-70
2023/04/15 06:12:45;;;;;;;13.10;8.73;;;;;;;;;;4902569;29;20048;-70
2023/04/15 06:15:11;;;;;;;14.93;8.95;;;;;;;;;;4873168;29;20056;-69
2023/04/15 06:17:37;;;;;;;12.07;9.10;;;;;;;;;;4884211;29;20100;-70
2023/04/15 06:20:03;;;;;;;14.45;8.23;;;7.40;99.90;;;;;;4868969;29;20049;-70
2023/04/15 06:22:29;;;;;;;16.20;8.70;;;;;;;;;;4885917;29;20051;-68
2023/04/15 06:24:56;;;;;;;14.30;8.65;;;;;;;;;;4914626;29;20478;-70
2023/04/15 06:27:22;;;;;;;13.70;8.52;;;;;;;;;;4883840;29;20123;-70
2023/04/15 06:29:48;;;;;;;10.15;7.45;;;;;;;;;;4900860;29;20424;-70
2023/04/15 06:32:14;;;;;;;13.80;8.20;;;;;;;;;;4883852;29;20051;-70
2023/04/15 06:34:40;;;;;;;17.50;9.20;;;;;;;;;;4901141;29;20047;-70
2023/04/15 06:37:06;;;;;;;11.27;8.45;;;;;;;;;;4897444;29;20072;-70
2023/04/15 06:39:32;;;;;;;13.45;8.68;;;;;;;;;;4900354;29;20084;-70
2023/04/15 06:41:58;;;;;;;14.10;9.75;;;;;;;;;;4917661;29;20051;-71
2023/04/15 06:44:25;;;;;;;19.38;11.13;;;;;;;;;;4883391;29;20052;-71
2023/04/15 06:46:51;;;;;;;16.95;10.23;;;;;;;;;;4900203;29;20040;-71
2023/04/15 06:49:17;;;;;;;14.65;10.73;;;;;;;;;;4883519;29;20350;-71
2023/04/15 06:51:43;;;;;;;16.70;10.07;;;;;;;;;;4883593;29;20048;-71
2023/04/15 06:54:09;;;;;;;19.67;11.45;;;;;;;;;;4883576;29;20092;-70
2023/04/15 06:56:35;;;;;;;20.00;11.48;;;;;;;;;;4884844;29;20044;-71
2023/04/15 06:59:02;;;;;;;20.48;11.95;;;;;;;;;;4894899;29;20059;-71
2023/04/15 07:01:28;;;;;;;19.75;11.30;;;;;;;;;;4891955;29;20552;-71
2023/04/15 07:03:54;;;;;;;17.67;11.27;;;;;;;;;;4892572;29;20075;-71
2023/04/15 07:06:21;;;;;;;18.20;11.60;;;;;;;;;;4891616;29;20043;-71
2023/04/15 07:08:48;;;;;;;18.42;10.50;;;;;;;;;;4878722;29;20049;-71
2023/04/15 07:11:14;;;;;;;18.25;10.73;;;;;;;;;;4891071;29;20080;-70
2023/04/15 07:13:40;;;;;;;15.48;10.63;;;;;;;;;;4892772;29;20045;-70
2023/04/15 07:16:07;;;;;;;14.95;9.93;;;;;;;;;;4891827;29;20574;-71
2023/04/15 07:18:35;;;;;;;18.77;10.60;;;;;;;;;;4896534;29;20107;-70
2023/04/15 07:21:01;;;;;;;16.35;10.02;;;;;;;;;;4908135;29;20043;-69
2023/04/15 07:23:28;;;;;;;16.75;9.13;;;;;;;;;;4877825;29;20131;-70
2023/04/15 07:25:54;;;;;;;19.40;9.88;;;;;;;;;;4891018;29;20071;-69
2023/04/15 07:28:20;;;;;;;13.10;8.68;;;;;;;;;;4891570;29;20144;-69
2023/04/15 07:30:46;;;;;;;13.38;8.18;;;;;;;;;;4876336;29;20054;-70
2023/04/15 07:33:13;;;;;;;12.52;6.70;;;;;;;;;;4882677;29;20044;-70
2023/04/15 07:35:39;;;;;;;9.40;6.53;;;;;;;;;;4898186;29;20066;-70
2023/04/15 07:38:05;;;;;;;10.65;6.35;;;;;;;;;;4889589;29;20045;-70
2023/04/15 07:40:32;;;;;;;9.00;5.35;;;;;;;;;;4892043;29;20406;-70
2023/04/15 07:42:58;;;;;;;9.13;6.28;;;;;;;;;;4890839;29;20048;-71
2023/04/15 07:45:24;;;;;;;11.25;5.05;;;;;;;;;;4877986;29;20461;-70
2023/04/15 07:47:50;;;;;;;9.00;5.57;;;;;;;;;;4890567;29;20082;-70
2023/04/15 07:50:17;;;;;;;7.97;4.57;;;;;;;;;;4885672;29;20047;-70
2023/04/15 07:52:43;;;;;;;7.07;4.90;;;;;;;;;;4891912;29;20052;-70
2023/04/15 07:55:10;;;;;;;9.80;4.85;;;;;;;;;;4900697;29;20436;-70
2023/04/15 07:57:36;;;;;;;8.88;5.07;;;;;;;;;;4900655;29;20036;-70
2023/04/15 08:00:06;;;;;;;7.95;5.30;;;9.70;99.90;;;;;;4899611;29;20052;-70
2023/04/15 08:02:32;;;;;;;7.57;5.00;;;;;;;;;;4874118;29;20056;-76
2023/04/15 08:04:58;;;;;;;13.38;5.22;;;;;;;;;;4874458;29;20131;-74
2023/04/15 08:07:25;;;;;;;10.85;5.78;;;;;;;;;;4899494;29;20405;-73
2023/04/15 08:09:51;;;;;;;9.95;4.78;;;;;;;;;;4893925;29;20051;-70
2023/04/15 08:12:17;;;;;;;5.55;4.30;;;;;;;;;;4884643;29;20043;-69
2023/04/15 08:14:43;;;;;;;9.85;4.80;;;;;;;;;;4907236;29;20048;-69
2023/04/15 08:17:09;;;;;;;13.18;6.30;;;;;;;;;;4880827;29;20055;-70
2023/04/15 08:19:35;;;;;;;7.05;4.10;;;;;;;;;;4881303;29;20056;-70
2023/04/15 08:22:01;;;;;;;7.75;4.32;;;;;;;;;;4900784;29;20040;-70
2023/04/15 08:24:27;;;;;;;6.55;3.70;;;;;;;;;;4900252;29;20488;-70
2023/04/15 08:26:53;;;;;;;8.40;4.78;;;;;;;;;;4899842;29;20036;-70
2023/04/15 08:29:19;;;;;;;8.52;4.63;;;9.70;99.90;;;;;;4900257;29;20396;-70
2023/04/15 08:31:46;;;;;;;6.43;4.68;;;9.90;99.90;;;;;;4884772;29;20055;-70
2023/04/15 08:34:12;;;;;;;8.73;4.43;;;;;;;;;;4867414;29;20055;-69
2023/04/15 08:36:38;;;;;;;8.30;4.70;;;;;;;;;;4881586;29;20549;-69
2023/04/15 08:39:04;;;;;;;6.53;4.15;;;;;;;;;;4886652;29;20484;-70
2023/04/15 08:41:37;;;;;;;9.80;4.35;;;;;;;;;;4884700;29;20466;-70
2023/04/15 08:44:04;;;;;;;7.90;4.53;;;;;;;;;;4896970;29;20497;-70
2023/04/15 08:46:33;;;;;;;7.28;4.90;;;;;;;;;;4866439;29;20049;-70
2023/04/15 08:49:00;;;;;;;10.00;5.35;;;;;;;;;;4851279;29;20087;-70
2023/04/15 08:51:26;;;;;;;11.25;5.22;;;9.90;99.90;;;;;;4897495;29;20044;-70
2023/04/15 08:53:52;;;;;;;11.50;5.40;;;;;;;;;;4882333;29;20489;-70
2023/04/15 08:56:19;;;;;;;10.57;5.15;;;;;;;;;;4881263;29;20041;-70
2023/04/15 08:58:46;;;;;;;18.98;6.28;;;9.70;99.90;;;;;;4865843;29;20159;-70
2023/04/15 09:01:13;;;;;;;6.82;4.80;;;;;;;;;;4899582;29;20055;-70
2023/04/15 09:03:39;;;;;;;10.38;4.20;;;;;;;;;;4893091;29;20185;-70
2023/04/15 09:06:05;;;;;;;9.70;4.20;;;;;;;;;;4871095;29;20080;-70
2023/04/15 09:08:33;;;;;;;7.40;4.45;;;;;;;;;;4887948;29;20148;-69
2023/04/15 09:11:01;;;;;;;5.45;4.13;;;9.70;99.90;;;;;;4891250;29;20067;-70
2023/04/15 09:13:27;;;;;;;10.13;4.50;;;;;;;;;;4891022;29;20049;-70
2023/04/15 09:15:54;;;;;;;10.68;4.38;;;;;;;;;;4882606;29;20044;-70
2023/04/15 09:18:30;;;;;;;6.18;4.03;;;;;;;;;;4898426;29;20052;-70
2023/04/15 09:21:04;;;;;;;7.18;3.50;;;;;;;;;;4888748;29;20055;-70
2023/04/15 09:23:31;;;;;;;6.80;3.38;;;9.70;99.90;;;;;;4881131;29;20059;-70
2023/04/15 09:25:57;;;;;;;7.07;3.67;;;;;;;;;;4896222;29;20055;-69
2023/04/15 09:28:25;;;;;;;4.65;3.10;;;9.70;99.90;;;;;;4886841;29;20067;-70
2023/04/15 09:30:55;;;;;;;6.03;3.70;;;9.90;99.90;;;;;;4902774;29;20123;-69
2023/04/15 09:33:21;;;;;;;8.73;3.40;;;;;;;;;;4876733;29;20493;-70
2023/04/15 09:36:02;;;;;;;7.38;3.40;;;10.00;99.90;;;;;;4887570;29;20048;-70
2023/04/15 09:38:28;;;;;;;10.55;3.95;;;;;;;;;;4900835;29;20055;-70
2023/04/15 09:40:55;;;;;;;10.52;3.42;;;;;;;;;;4886110;29;20039;-70
2023/04/15 09:43:21;;;;;;;6.60;3.55;;;;;;;;;;4912291;29;20045;-69
2023/04/15 09:45:52;;;;;;;8.38;2.90;;;10.10;99.90;;;;;;4886227;29;20057;-69
2023/04/15 09:48:26;;;;;;;5.03;2.75;;;10.10;99.90;;;;;;4916247;29;20051;-70
2023/04/15 09:50:52;;;;;;;8.30;3.05;;;;;;;;;;4888102;29;20101;-70
2023/04/15 09:53:19;;;;;;;4.20;2.72;;;;;;;;;;4884391;29;20044;-70
2023/04/15 09:55:50;;;;;;;5.53;2.80;;;10.40;99.90;;;;;;4869869;29;20540;-69
2023/04/15 09:58:45;;;;;;;5.40;2.70;;;10.50;99.90;;;;;;4898169;29;20563;-70
2023/04/15 10:01:11;;;;;;;4.35;2.10;;;;;;;;;;4899538;29;20472;-69
2023/04/15 10:03:41;;;;;;;5.03;2.60;;;;;;;;;;4911986;29;20044;-70
2023/04/15 10:06:07;;;;;;;6.15;2.45;;;;;;;;;;4908992;29;20048;-70
2023/04/15 10:08:34;;;;;;;3.17;2.20;;;;;;;;;;4890815;29;20535;-70
2023/04/15 10:11:01;;;;;;;6.32;2.70;;;10.40;99.90;;;;;;4889248;29;20149;-70
2023/04/15 10:13:31;;;;;;;7.15;2.50;;;;;;;;;;4882418;29;20052;-70
2023/04/15 10:15:57;;;;;;;5.60;2.50;;;;;;;;;;4883353;29;20052;-69
2023/04/15 10:18:26;;;;;;;5.32;2.67;;;10.30;99.90;;;;;;4868999;29;20041;-69
2023/04/15 10:20:52;;;;;;;5.82;2.22;;;;;;;;;;4868549;29;20045;-69
2023/04/15 10:23:19;;;;;;;3.97;1.92;;;;;;;;;;4868924;29;20041;-68
2023/04/15 10:25:46;;;;;;;4.93;2.15;;;;;;;;;;4883912;29;20513;-69
2023/04/15 10:28:13;;;;;;;3.60;1.98;;;10.30;99.90;;;;;;4884263;29;20382;-69
2023/04/15 10:30:39;;;;;;;2.92;1.90;;;;;;;;;;4884082;29;20119;-70
2023/04/15 10:33:05;;;;;;;3.65;1.90;;;10.70;99.90;;;;;;4900655;29;20132;-69
2023/04/15 10:35:35;;;;;;;5.00;2.00;;;10.70;99.90;;;;;;4890860;29;20047;-70
2023/04/15 10:38:01;;;;;;;4.07;1.95;;;;;;;;;;4899704;29;20378;-69
2023/04/15 10:40:30;;;;;;;3.17;2.08;;;10.60;99.90;;;;;;4900539;29;20052;-70
2023/04/15 10:43:01;;;;;;;2.55;2.05;;;10.80;99.90;;;;;;4884874;29;20497;-69
2023/04/15 10:45:38;;;;;;;3.30;2.00;;;10.70;99.90;;;;;;4887040;29;20045;-69
2023/04/15 10:48:06;;;;;;;3.75;1.92;;;10.40;99.90;;;;;;4889804;29;20504;-69
2023/04/15 10:50:33;;;;;;;7.70;3.13;;;;;;;;;;4918806;29;20052;-70
2023/04/15 10:53:03;;;;;;;4.45;2.25;;;10.50;99.90;;;;;;4888605;29;20111;-69
2023/04/15 10:55:33;;;;;;;5.47;1.77;;;10.40;99.90;;;;;;4886275;29;20044;-70
2023/04/15 10:58:00;;;;;;;2.83;2.00;;;;;;;;;;4896000;29;20049;-69
2023/04/15 11:00:28;;;;;;;4.53;2.08;;;;;;;;;;4883383;29;20052;-70
2023/04/15 11:02:57;;;;;;;4.43;2.10;;;;;;;;;;4897863;29;20055;-70
2023/04/15 11:05:43;;;;;;;3.45;1.95;;;;;;;;;;4890693;29;20076;-70
2023/04/15 11:08:10;;;;;;;4.95;2.10;;;;;;;;;;4878915;29;20048;-70
2023/04/15 11:10:36;;;;;;;4.03;1.83;;;;;;;;;;4901832;29;20549;-70
2023/04/15 11:13:15;;;;;;;3.53;1.90;;;10.40;99.90;;;;;;4895155;29;20493;-70
2023/04/15 11:15:46;;;;;;;7.88;2.50;;;10.20;99.90;;;;;;4891778;29;20040;-70
2023/04/15 11:18:26;;;;;;;6.63;2.22;;;10.40;99.90;;;;;;4867707;29;20169;-70
2023/04/15 11:21:02;;;;;;;4.90;2.30;;;10.10;99.90;;;;;;4883214;29;20062;-70
2023/04/15 11:23:37;;;;;;;5.00;1.95;;;10.20;99.90;;;;;;4882471;29;20201;-70
2023/04/15 11:26:08;;;;;;;3.60;1.90;;;10.10;99.90;;;;;;4885688;29;20044;-69
2023/04/15 11:28:35;;;;;;;6.72;2.10;;;10.30;99.90;;;;;;4878077;29;20048;-70
2023/04/15 11:31:15;;;;;;;5.38;2.40;;;9.80;99.90;;;;;;4883960;29;20393;-70
2023/04/15 11:33:55;;;;;;;9.80;2.40;;;10.00;99.90;;;;;;4884030;29;20115;-69
2023/04/15 11:36:26;;;;;;;6.55;2.70;;;10.10;99.90;;;;;;4882778;29;20040;-70
2023/04/15 11:38:52;;;;;;;5.63;2.53;;;;;;;;;;4912513;29;20048;-69
2023/04/15 11:41:24;;;;;;;5.95;2.30;;;9.90;99.90;;;;;;4882840;29;20075;-70
2023/04/15 11:43:51;;;;;;;7.25;2.00;;;10.60;99.90;;;;;;4899558;29;20485;-70
2023/04/15 11:46:17;;;;;;;5.88;1.90;;;;;;;;;;4883895;29;20039;-70
2023/04/15 11:48:45;;;;;;;4.47;2.15;;;9.90;99.90;;;;;;4916592;29;20099;-70
2023/04/15 11:51:12;;;;;;;5.05;2.00;;;9.80;99.90;;;;;;4891817;29;20071;-72
2023/04/15 11:53:47;;;;;;;4.88;2.00;;;10.00;99.90;;;;;;4877507;29;20052;-70
2023/04/15 11:56:21;;;;;;;2.78;1.77;;;9.90;99.90;;;;;;4914323;29;20044;-70
2023/04/15 11:58:50;;;;;;;5.07;1.90;;;9.80;99.90;;;;;;4901013;29;20044;-69
2023/04/15 12:01:17;;;;;;;4.20;2.05;;;;;;;;;;4894937;29;20056;-70
2023/04/15 12:03:45;;;;;;;7.90;2.05;;;;;;;;;;4883897;29;20496;-69
2023/04/15 12:06:21;;;;;;;6.65;1.88;;;10.50;99.90;;;;;;4917395;29;20515;-69
2023/04/15 12:09:01;;;;;;;3.78;1.88;;;;;;;;;;4899924;29;20100;-69
2023/04/15 12:11:28;;;;;;;6.57;2.33;;;;;;;;;;4891257;29;20088;-70
2023/04/15 12:14:03;;;;;;;8.90;2.20;;;10.30;99.90;;;;;;4900526;29;20044;-70
2023/04/15 12:16:30;;;;;;;8.80;2.47;;;;;;;;;;4876540;29;20044;-70
2023/04/15 12:18:59;;;;;;;10.55;2.13;;;;;;;;;;4881943;29;20048;-70
2023/04/15 12:21:32;;;;;;;9.38;2.45;;;9.70;99.90;;;;;;4881977;29;20049;-70
2023/04/15 12:24:02;;;;;;;7.63;2.00;;;9.70;99.90;;;;;;4866736;29;20044;-70
2023/04/15 12:26:30;;;;;;;11.60;2.50;;;9.70;99.90;;;;;;4889338;29;20525;-70
2023/04/15 12:29:05;;;;;;;5.80;2.10;;;9.70;99.90;;;;;;4866562;29;20412;-70
2023/04/15 12:31:32;;;;;;;8.32;2.05;;;;;;;;;;4881921;29;20171;-70
2023/04/15 12:33:59;;;;;;;9.10;2.42;;;9.50;99.90;;;;;;4866181;29;20055;-70
2023/04/15 12:36:25;;;;;;;8.35;2.00;;;;;;;;;;4881663;29;20111;-70
2023/04/15 12:38:52;;;;;;;9.70;1.88;;;;;;;;;;4881241;29;20051;-70
2023/04/15 12:41:18;;;;;;;16.95;2.15;;;;;;;;;;4872054;29;20068;-70
2023/04/15 12:43:45;;;;;;;14.93;2.50;;;9.40;99.90;;;;;;4917040;29;20412;-70
2023/04/15 12:46:11;;;;;;;6.28;1.98;;;;;;;;;;4877907;29;20519;-70
2023/04/15 12:48:37;;;;;;;10.20;2.40;;;;;;;;;;4866016;29;20048;-70
2023/04/15 12:51:03;;;;;;;14.82;2.50;;;;;;;;;;4886280;29;20072;-70
2023/04/15 12:53:29;;;;;;;11.95;2.17;;;;;;;;;;4864889;29;20117;-70
2023/04/15 12:55:56;;;;;;;11.35;2.05;;;;;;;;;;4875931;29;20044;-71
2023/04/15 12:58:22;;;;;;;6.53;1.80;;;;;;;;;;4869314;29;20040;-71
2023/04/15 13:00:48;;;;;;;12.52;2.28;;;;;;;;;;4884068;29;20571;-71
2023/04/15 13:03:15;;;;;;;12.57;2.67;;;;;;;;;;4891036;29;20056;-71
2023/04/15 13:05:41;;;;;;;13.85;2.15;;;;;;;;;;4881520;29;20124;-71
2023/04/15 13:08:07;;;;;;;9.45;2.25;;;;;;;;;;4885228;29;20539;-71
2023/04/15 13:10:37;;;;;;;16.85;2.30;;;9.40;99.90;;;;;;4889011;29;20049;-71
2023/04/15 13:13:04;;;;;;;14.60;2.50;;;9.20;99.90;;;;;;4892126;29;20099;-70
2023/04/15 13:15:30;;;;;;;15.07;2.08;;;;;;;;;;4866468;29;20052;-71
2023/04/15 13:17:56;;;;;;;6.80;2.35;;;;;;;;;;4890007;29;20044;-70
2023/04/15 13:20:22;;;;;;;16.00;1.80;;;;;;;;;;4891446;29;20358;-70
2023/04/15 13:22:48;;;;;;;10.10;2.25;;;;;;;;;;4889544;29;20037;-71
2023/04/15 13:25:15;;;;;;;10.95;2.17;;;;;;;;;;4866811;29;20067;-70
2023/04/15 13:27:41;;;;;;;10.82;1.40;;;;;;;;;;4890965;29;20051;-70
2023/04/15 13:30:08;;;;;;;10.32;1.88;;;8.90;99.90;;;;;;4891152;29;20127;-69
2023/04/15 13:32:34;;;;;;;7.25;1.92;;;;;;;;;;4907070;29;20048;-69
2023/04/15 13:35:00;;;;;;;8.40;2.08;;;;;;;;;;4890173;29;20123;-70
2023/04/15 13:37:27;;;;;;;24.38;2.67;;;9.00;99.90;;;;;;4889243;29;20131;-70
2023/04/15 13:39:53;;;;;;;9.57;1.95;;;;;;;;;;4891584;29;20045;-71
2023/04/15 13:42:20;;;;;;;10.07;2.13;;;9.00;99.90;;;;;;4890989;29;20392;-70
2023/04/15 13:44:46;;;;;;;11.10;1.85;;;;;;;;;;4890846;29;20036;-70
2023/04/15 13:47:14;;;;;;;4.40;1.40;;;;;;;;;;4860155;29;20111;-70
2023/04/15 13:49:41;;;;;;;4.50;1.65;;;;;;;;;;4909719;29;20374;-70
2023/04/15 13:52:07;;;;;;;9.60;1.88;;;;;;;;;;4888773;29;20041;-71
2023/04/15 13:54:33;;;;;;;10.25;2.13;;;;;;;;;;4874452;29;20071;-71
2023/04/15 13:57:00;;;;;;;22.67;2.28;;;;;;;;;;4891800;29;20472;-71
2023/04/15 13:59:26;;;;;;;5.72;1.67;;;;;;;;;;4907420;29;20568;-71
2023/04/15 14:01:52;;;;;;;11.30;2.03;;;;;;;;;;4907204;29;20044;-71
2023/04/15 14:04:18;;;;;;;11.07;1.92;;;;;;;;;;4883755;29;20048;-71
2023/04/15 14:06:45;;;;;;;10.75;1.85;;;;;;;;;;4880699;29;20508;-71
2023/04/15 14:09:11;;;;;;;6.25;2.45;;;;;;;;;;4880787;29;20501;-71